sensor_id;sensor_type;location;lat;lon;timestamp;pressure;altitude;pressure_sealevel;temperature;humidity
20115;BME280;10218;42.874;25.320;2023-07-16T00:02:09;97302.91;;;25.29;100.00
20115;BME280;10218;42.874;25.320;2023-07-16T00:04:36;97299.16;;;25.03;100.00
20115;BME280;10218;42.874;25.320;2023-07-16T00:07:04;97307.03;;;25.00;100.00
20115;BME280;10218;42.874;25.320;2023-07-16T00:09:31;97301.94;;;24.55;100.00
20115;BME280;10218;42.874;25.320;2023-07-16T00:11:58;97308.53;;;24.59;100.00
20115;BME280;10218;42.874;25.320;2023-07-16T00:14:25;97297.78;;;24.79;100.00
20115;BME280;10218;42.874;25.320;2023-07-16T00:16:52;97292.44;;;24.36;100.00
20115;BME280;10218;42.874;25.320;2023-07-16T00:19:19;97300.06;;;24.34;100.00
20115;BME280;10218;42.874;25.320;2023-07-16T00:21:46;97304.97;;;24.32;100.00
20115;BME280;10218;42.874;25.320;2023-07-16T00:24:13;97304.91;;;24.26;100.00
20115;BME280;10218;42.874;25.320;2023-07-16T00:26:41;97308.78;;;24.31;100.00
20115;BME280;10218;42.874;25.320;2023-07-16T00:29:09;97309.47;;;24.43;100.00
20115;BME280;10218;42.874;25.320;2023-07-16T00:31:38;97309.03;;;24.29;100.00
20115;BME280;10218;42.874;25.320;2023-07-16T00:34:06;97302.97;;;24.05;100.00
20115;BME280;10218;42.874;25.320;2023-07-16T00:36:33;97308.50;;;23.88;100.00
20115;BME280;10218;42.874;25.320;2023-07-16T00:39:00;97312.75;;;23.79;100.00
20115;BME280;10218;42.874;25.320;2023-07-16T00:41:28;97308.56;;;23.94;100.00
20115;BME280;10218;42.874;25.320;2023-07-16T00:43:55;97303.41;;;23.75;100.00
20115;BME280;10218;42.874;25.320;2023-07-16T00:46:23;97297.13;;;23.75;100.00
20115;BME280;10218;42.874;25.320;2023-07-16T00:48:51;97293.84;;;24.16;100.00
20115;BME280;10218;42.874;25.320;2023-07-16T00:51:19;97287.66;;;24.48;100.00
20115;BME280;10218;42.874;25.320;2023-07-16T00:53:49;97296.16;;;24.51;100.00
20115;BME280;10218;42.874;25.320;2023-07-16T00:56:17;97280.06;;;24.55;100.00
20115;BME280;10218;42.874;25.320;2023-07-16T00:58:44;97280.59;;;24.52;100.00
20115;BME280;10218;42.874;25.320;2023-07-16T01:01:12;97292.66;;;24.56;100.00
20115;BME280;10218;42.874;25.320;2023-07-16T01:03:39;97278.13;;;24.50;100.00
20115;BME280;10218;42.874;25.320;2023-07-16T01:06:25;97276.28;;;24.56;100.00
20115;BME280;10218;42.874;25.320;2023-07-16T01:11:39;97270.56;;;24.57;100.00
20115;BME280;10218;42.874;25.320;2023-07-16T01:14:08;97287.16;;;24.51;100.00
20115;BME280;10218;42.874;25.320;2023-07-16T01:16:35;97277.94;;;24.13;100.00
20115;BME280;10218;42.874;25.320;2023-07-16T01:19:03;97282.09;;;23.94;100.00
20115;BME280;10218;42.874;25.320;2023-07-16T01:24:35;97277.91;;;23.86;100.00
20115;BME280;10218;42.874;25.320;2023-07-16T01:29:49;97280.75;;;23.75;100.00
20115;BME280;10218;42.874;25.320;2023-07-16T01:32:20;97274.44;;;23.53;100.00
20115;BME280;10218;42.874;25.320;2023-07-16T01:34:48;97275.88;;;23.55;100.00
20115;BME280;10218;42.874;25.320;2023-07-16T01:37:16;97285.56;;;23.68;100.00
20115;BME280;10218;42.874;25.320;2023-07-16T01:39:43;97287.59;;;23.56;100.00
20115;BME280;10218;42.874;25.320;2023-07-16T01:42:11;97281.31;;;23.38;100.00
20115;BME280;10218;42.874;25.320;2023-07-16T01:44:39;97273.91;;;23.17;100.00
20115;BME280;10218;42.874;25.320;2023-07-16T01:50:11;97278.66;;;23.27;100.00
20115;BME280;10218;42.874;25.320;2023-07-16T01:52:38;97275.25;;;22.98;100.00
20115;BME280;10218;42.874;25.320;2023-07-16T01:55:05;97286.13;;;22.98;100.00
20115;BME280;10218;42.874;25.320;2023-07-16T01:57:32;97273.94;;;23.00;100.00
20115;BME280;10218;42.874;25.320;2023-07-16T02:00:00;97271.00;;;23.07;100.00
20115;BME280;10218;42.874;25.320;2023-07-16T02:02:29;97283.41;;;22.98;100.00
20115;BME280;10218;42.874;25.320;2023-07-16T02:04:57;97276.94;;;22.71;100.00
20115;BME280;10218;42.874;25.320;2023-07-16T02:07:24;97279.25;;;23.29;100.00
20115;BME280;10218;42.874;25.320;2023-07-16T02:09:51;97278.00;;;22.70;100.00
20115;BME280;10218;42.874;25.320;2023-07-16T02:12:18;97277.84;;;22.59;100.00
20115;BME280;10218;42.874;25.320;2023-07-16T02:14:45;97280.37;;;22.49;100.00
20115;BME280;10218;42.874;25.320;2023-07-16T02:17:12;97268.38;;;22.79;100.00
20115;BME280;10218;42.874;25.320;2023-07-16T02:19:40;97278.53;;;22.83;100.00
20115;BME280;10218;42.874;25.320;2023-07-16T02:22:09;97277.16;;;22.52;100.00
20115;BME280;10218;42.874;25.320;2023-07-16T02:24:36;97277.78;;;22.43;100.00
20115;BME280;10218;42.874;25.320;2023-07-16T02:27:03;97288.00;;;22.36;100.00
20115;BME280;10218;42.874;25.320;2023-07-16T02:29:32;97284.41;;;22.47;100.00
20115;BME280;10218;42.874;25.320;2023-07-16T02:31:59;97284.22;;;22.37;100.00
20115;BME280;10218;42.874;25.320;2023-07-16T02:34:26;97285.63;;;22.39;100.00
20115;BME280;10218;42.874;25.320;2023-07-16T02:36:53;97286.88;;;22.48;100.00
20115;BME280;10218;42.874;25.320;2023-07-16T02:39:20;97282.09;;;22.55;100.00
20115;BME280;10218;42.874;25.320;2023-07-16T02:41:48;97280.84;;;22.46;100.00
20115;BME280;10218;42.874;25.320;2023-07-16T02:44:16;97285.47;;;22.46;100.00
20115;BME280;10218;42.874;25.320;2023-07-16T02:46:43;97286.06;;;22.48;100.00
20115;BME280;10218;42.874;25.320;2023-07-16T02:49:11;97274.38;;;22.36;100.00
20115;BME280;10218;42.874;25.320;2023-07-16T02:51:38;97286.06;;;22.48;100.00
20115;BME280;10218;42.874;25.320;2023-07-16T02:54:05;97287.53;;;22.39;100.00
20115;BME280;10218;42.874;25.320;2023-07-16T02:56:34;97293.91;;;22.44;100.00
20115;BME280;10218;42.874;25.320;2023-07-16T02:59:01;97299.00;;;22.12;100.00
20115;BME280;10218;42.874;25.320;2023-07-16T03:01:28;97293.91;;;22.44;100.00
20115;BME280;10218;42.874;25.320;2023-07-16T03:03:55;97290.66;;;22.47;100.00
20115;BME280;10218;42.874;25.320;2023-07-16T03:06:22;97294.78;;;22.33;100.00
20115;BME280;10218;42.874;25.320;2023-07-16T03:08:50;97289.97;;;22.40;100.00
20115;BME280;10218;42.874;25.320;2023-07-16T03:11:18;97291.62;;;22.41;100.00
20115;BME280;10218;42.874;25.320;2023-07-16T03:13:45;97293.88;;;22.16;100.00
20115;BME280;10218;42.874;25.320;2023-07-16T03:16:12;97293.81;;;22.56;100.00
20115;BME280;10218;42.874;25.320;2023-07-16T03:18:39;97295.09;;;22.65;100.00
20115;BME280;10218;42.874;25.320;2023-07-16T03:21:07;97302.87;;;22.45;100.00
20115;BME280;10218;42.874;25.320;2023-07-16T03:23:35;97299.44;;;22.49;100.00
20115;BME280;10218;42.874;25.320;2023-07-16T03:26:02;97309.59;;;22.54;100.00
20115;BME280;10218;42.874;25.320;2023-07-16T03:28:29;97308.81;;;22.42;100.00
20115;BME280;10218;42.874;25.320;2023-07-16T03:30:56;97296.72;;;22.66;100.00
20115;BME280;10218;42.874;25.320;2023-07-16T03:33:24;97293.56;;;22.86;100.00
20115;BME280;10218;42.874;25.320;2023-07-16T03:35:51;97297.03;;;22.98;100.00
20115;BME280;10218;42.874;25.320;2023-07-16T03:38:18;97302.81;;;23.01;100.00
20115;BME280;10218;42.874;25.320;2023-07-16T03:40:49;97300.09;;;22.85;100.00
20115;BME280;10218;42.874;25.320;2023-07-16T03:43:17;97311.88;;;22.74;100.00
20115;BME280;10218;42.874;25.320;2023-07-16T03:45:44;97308.75;;;22.98;100.00
20115;BME280;10218;42.874;25.320;2023-07-16T03:48:11;97303.25;;;23.10;100.00
20115;BME280;10218;42.874;25.320;2023-07-16T03:50:38;97308.09;;;23.08;100.00
20115;BME280;10218;42.874;25.320;2023-07-16T03:53:05;97319.59;;;23.10;100.00
20115;BME280;10218;42.874;25.320;2023-07-16T03:55:32;97321.22;;;22.94;100.00
20115;BME280;10218;42.874;25.320;2023-07-16T03:57:59;97313.94;;;23.33;100.00
20115;BME280;10218;42.874;25.320;2023-07-16T04:00:26;97321.28;;;23.33;100.00
20115;BME280;10218;42.874;25.320;2023-07-16T04:02:54;97316.75;;;23.22;100.00
20115;BME280;10218;42.874;25.320;2023-07-16T04:05:21;97312.38;;;23.37;100.00
20115;BME280;10218;42.874;25.320;2023-07-16T04:07:50;97321.72;;;23.41;100.00
20115;BME280;10218;42.874;25.320;2023-07-16T04:10:17;97324.81;;;23.45;100.00
20115;BME280;10218;42.874;25.320;2023-07-16T04:12:44;97318.84;;;23.48;100.00
20115;BME280;10218;42.874;25.320;2023-07-16T04:15:11;97323.88;;;23.56;100.00
20115;BME280;10218;42.874;25.320;2023-07-16T04:17:39;97335.75;;;23.33;100.00
20115;BME280;10218;42.874;25.320;2023-07-16T04:20:06;97332.22;;;23.50;100.00
20115;BME280;10218;42.874;25.320;2023-07-16T04:22:34;97341.47;;;23.49;100.00
20115;BME280;10218;42.874;25.320;2023-07-16T04:25:02;97329.91;;;23.58;100.00
20115;BME280;10218;42.874;25.320;2023-07-16T04:27:30;97332.53;;;23.70;100.00
20115;BME280;10218;42.874;25.320;2023-07-16T04:29:57;97339.09;;;23.91;100.00
20115;BME280;10218;42.874;25.320;2023-07-16T04:32:25;97340.19;;;24.11;100.00
20115;BME280;10218;42.874;25.320;2023-07-16T04:34:51;97336.88;;;24.53;100.00
20115;BME280;10218;42.874;25.320;2023-07-16T04:37:19;97333.69;;;24.61;100.00
20115;BME280;10218;42.874;25.320;2023-07-16T04:39:46;97340.91;;;24.72;100.00
20115;BME280;10218;42.874;25.320;2023-07-16T04:42:13;97338.41;;;24.92;100.00
20115;BME280;10218;42.874;25.320;2023-07-16T04:44:40;97343.06;;;24.70;100.00
20115;BME280;10218;42.874;25.320;2023-07-16T04:47:07;97339.56;;;25.01;100.00
20115;BME280;10218;42.874;25.320;2023-07-16T04:49:35;97347.09;;;24.89;100.00
20115;BME280;10218;42.874;25.320;2023-07-16T04:52:03;97340.03;;;25.25;100.00
20115;BME280;10218;42.874;25.320;2023-07-16T04:54:37;97348.16;;;25.15;100.00
20115;BME280;10218;42.874;25.320;2023-07-16T04:57:08;97339.47;;;25.55;100.00
20115;BME280;10218;42.874;25.320;2023-07-16T04:59:35;97328.91;;;25.32;100.00
20115;BME280;10218;42.874;25.320;2023-07-16T05:02:05;97343.97;;;25.34;100.00
20115;BME280;10218;42.874;25.320;2023-07-16T05:04:33;97339.97;;;25.52;100.00
20115;BME280;10218;42.874;25.320;2023-07-16T05:07:04;97334.13;;;25.75;100.00
20115;BME280;10218;42.874;25.320;2023-07-16T05:09:31;97341.16;;;26.08;100.00
20115;BME280;10218;42.874;25.320;2023-07-16T05:11:58;97343.09;;;26.08;100.00
20115;BME280;10218;42.874;25.320;2023-07-16T05:14:27;97335.38;;;25.94;100.00
20115;BME280;10218;42.874;25.320;2023-07-16T05:16:55;97346.03;;;25.96;100.00
20115;BME280;10218;42.874;25.320;2023-07-16T05:19:23;97340.47;;;26.28;100.00
20115;BME280;10218;42.874;25.320;2023-07-16T05:21:50;97331.75;;;26.36;100.00
20115;BME280;10218;42.874;25.320;2023-07-16T05:24:17;97341.06;;;26.40;100.00
20115;BME280;10218;42.874;25.320;2023-07-16T05:26:44;97344.12;;;26.59;100.00
20115;BME280;10218;42.874;25.320;2023-07-16T05:29:11;97351.03;;;26.71;100.00
20115;BME280;10218;42.874;25.320;2023-07-16T05:31:38;97340.59;;;26.73;100.00
20115;BME280;10218;42.874;25.320;2023-07-16T05:34:05;97348.59;;;26.85;100.00
20115;BME280;10218;42.874;25.320;2023-07-16T05:36:33;97356.28;;;26.93;100.00
20115;BME280;10218;42.874;25.320;2023-07-16T05:39:00;97350.28;;;26.96;100.00
20115;BME280;10218;42.874;25.320;2023-07-16T05:41:27;97342.59;;;26.98;100.00
20115;BME280;10218;42.874;25.320;2023-07-16T05:43:54;97350.00;;;27.38;100.00
20115;BME280;10218;42.874;25.320;2023-07-16T05:46:21;97347.00;;;27.40;100.00
20115;BME280;10218;42.874;25.320;2023-07-16T05:48:48;97353.31;;;27.45;100.00
20115;BME280;10218;42.874;25.320;2023-07-16T05:51:15;97349.22;;;27.33;100.00
20115;BME280;10218;42.874;25.320;2023-07-16T05:53:42;97343.44;;;27.70;100.00
20115;BME280;10218;42.874;25.320;2023-07-16T05:56:09;97346.50;;;27.53;100.00
20115;BME280;10218;42.874;25.320;2023-07-16T05:58:37;97348.34;;;27.88;100.00
20115;BME280;10218;42.874;25.320;2023-07-16T06:01:04;97347.16;;;28.19;100.00
20115;BME280;10218;42.874;25.320;2023-07-16T06:03:31;97353.75;;;28.28;100.00
20115;BME280;10218;42.874;25.320;2023-07-16T06:05:58;97354.59;;;28.29;100.00
20115;BME280;10218;42.874;25.320;2023-07-16T06:08:25;97358.72;;;28.21;100.00
20115;BME280;10218;42.874;25.320;2023-07-16T06:10:53;97349.84;;;28.39;100.00
20115;BME280;10218;42.874;25.320;2023-07-16T06:13:20;97356.28;;;28.79;100.00
20115;BME280;10218;42.874;25.320;2023-07-16T06:15:47;97351.75;;;28.98;100.00
20115;BME280;10218;42.874;25.320;2023-07-16T06:18:14;97356.03;;;29.19;100.00
20115;BME280;10218;42.874;25.320;2023-07-16T06:20:45;97354.00;;;29.64;100.00
20115;BME280;10218;42.874;25.320;2023-07-16T06:23:13;97362.00;;;29.94;100.00
20115;BME280;10218;42.874;25.320;2023-07-16T06:25:40;97349.28;;;29.41;100.00
20115;BME280;10218;42.874;25.320;2023-07-16T06:28:11;97362.53;;;29.33;100.00
20115;BME280;10218;42.874;25.320;2023-07-16T06:30:38;97357.34;;;29.61;100.00
20115;BME280;10218;42.874;25.320;2023-07-16T06:33:06;97359.94;;;29.47;100.00
20115;BME280;10218;42.874;25.320;2023-07-16T06:35:33;97362.13;;;30.08;100.00
20115;BME280;10218;42.874;25.320;2023-07-16T06:38:00;97359.53;;;29.93;100.00
20115;BME280;10218;42.874;25.320;2023-07-16T06:40:28;97359.97;;;30.29;100.00
20115;BME280;10218;42.874;25.320;2023-07-16T06:42:56;97360.31;;;30.46;100.00
20115;BME280;10218;42.874;25.320;2023-07-16T06:45:23;97362.03;;;30.42;100.00
20115;BME280;10218;42.874;25.320;2023-07-16T06:47:51;97362.16;;;30.32;100.00
20115;BME280;10218;42.874;25.320;2023-07-16T06:50:18;97361.78;;;30.14;100.00
20115;BME280;10218;42.874;25.320;2023-07-16T06:52:45;97351.94;;;30.56;100.00
20115;BME280;10218;42.874;25.320;2023-07-16T06:55:12;97356.97;;;30.49;100.00
20115;BME280;10218;42.874;25.320;2023-07-16T06:57:39;97358.41;;;30.46;100.00
20115;BME280;10218;42.874;25.320;2023-07-16T07:00:07;97358.78;;;30.35;100.00
20115;BME280;10218;42.874;25.320;2023-07-16T07:02:37;97360.06;;;30.47;100.00
20115;BME280;10218;42.874;25.320;2023-07-16T07:05:05;97352.50;;;30.77;100.00
20115;BME280;10218;42.874;25.320;2023-07-16T07:07:32;97352.16;;;30.36;100.00
20115;BME280;10218;42.874;25.320;2023-07-16T07:09:59;97346.66;;;30.78;100.00
20115;BME280;10218;42.874;25.320;2023-07-16T07:12:26;97349.50;;;30.92;97.30
20115;BME280;10218;42.874;25.320;2023-07-16T07:14:53;97353.28;;;31.52;98.97
20115;BME280;10218;42.874;25.320;2023-07-16T07:17:21;97353.91;;;31.30;98.52
20115;BME280;10218;42.874;25.320;2023-07-16T07:19:48;97352.66;;;31.23;96.68
20115;BME280;10218;42.874;25.320;2023-07-16T07:22:15;97360.41;;;31.21;97.55
20115;BME280;10218;42.874;25.320;2023-07-16T07:24:42;97361.72;;;31.61;94.70
20115;BME280;10218;42.874;25.320;2023-07-16T07:27:09;97363.59;;;31.47;94.60
20115;BME280;10218;42.874;25.320;2023-07-16T07:29:36;97349.41;;;31.53;93.62
20115;BME280;10218;42.874;25.320;2023-07-16T07:32:04;97355.69;;;32.05;89.74
20115;BME280;10218;42.874;25.320;2023-07-16T07:34:31;97352.09;;;32.04;86.31
20115;BME280;10218;42.874;25.320;2023-07-16T07:36:58;97352.78;;;30.94;89.94
20115;BME280;10218;42.874;25.320;2023-07-16T07:39:25;97344.94;;;31.57;83.77
20115;BME280;10218;42.874;25.320;2023-07-16T07:41:52;97346.91;;;31.70;85.40
20115;BME280;10218;42.874;25.320;2023-07-16T07:44:19;97352.09;;;32.04;85.07
20115;BME280;10218;42.874;25.320;2023-07-16T07:46:46;97350.66;;;32.07;90.75
20115;BME280;10218;42.874;25.320;2023-07-16T07:49:13;97357.75;;;32.26;78.68
20115;BME280;10218;42.874;25.320;2023-07-16T07:51:40;97354.66;;;32.83;77.70
20115;BME280;10218;42.874;25.320;2023-07-16T07:54:07;97352.62;;;32.47;75.08
20115;BME280;10218;42.874;25.320;2023-07-16T07:56:34;97353.25;;;32.17;71.77
20115;BME280;10218;42.874;25.320;2023-07-16T07:59:01;97349.88;;;32.34;78.55
20115;BME280;10218;42.874;25.320;2023-07-16T08:01:29;97351.41;;;32.53;80.00
20115;BME280;10218;42.874;25.320;2023-07-16T08:03:56;97354.88;;;32.86;69.56
20115;BME280;10218;42.874;25.320;2023-07-16T08:06:23;97355.41;;;32.75;71.69
20115;BME280;10218;42.874;25.320;2023-07-16T08:08:50;97353.53;;;32.56;73.95
20115;BME280;10218;42.874;25.320;2023-07-16T08:11:18;97357.31;;;32.88;70.47
20115;BME280;10218;42.874;25.320;2023-07-16T08:13:45;97352.97;;;32.18;78.59
20115;BME280;10218;42.874;25.320;2023-07-16T08:16:12;97353.41;;;32.07;81.15
20115;BME280;10218;42.874;25.320;2023-07-16T08:18:39;97360.44;;;32.73;79.12
20115;BME280;10218;42.874;25.320;2023-07-16T08:21:06;97361.44;;;32.36;80.99
20115;BME280;10218;42.874;25.320;2023-07-16T08:23:33;97361.16;;;32.64;83.12
20115;BME280;10218;42.874;25.320;2023-07-16T08:26:01;97364.13;;;32.54;87.42
20115;BME280;10218;42.874;25.320;2023-07-16T08:28:28;97359.47;;;32.91;87.20
20115;BME280;10218;42.874;25.320;2023-07-16T08:30:55;97356.59;;;32.96;80.09
20115;BME280;10218;42.874;25.320;2023-07-16T08:33:22;97354.88;;;32.86;77.84
20115;BME280;10218;42.874;25.320;2023-07-16T08:35:49;97358.63;;;33.40;89.85
20115;BME280;10218;42.874;25.320;2023-07-16T08:38:16;97363.63;;;33.02;78.90
20115;BME280;10218;42.874;25.320;2023-07-16T08:40:47;97363.84;;;33.05;89.40
20115;BME280;10218;42.874;25.320;2023-07-16T08:43:15;97368.22;;;32.71;81.45
20115;BME280;10218;42.874;25.320;2023-07-16T08:45:44;97356.94;;;32.81;100.00
20115;BME280;10218;42.874;25.320;2023-07-16T08:48:13;97357.81;;;33.39;79.49
20115;BME280;10218;42.874;25.320;2023-07-16T08:50:41;97361.16;;;33.72;77.11
20115;BME280;10218;42.874;25.320;2023-07-16T08:53:09;97361.84;;;32.84;81.49
20115;BME280;10218;42.874;25.320;2023-07-16T08:55:36;97364.81;;;33.37;73.91
20115;BME280;10218;42.874;25.320;2023-07-16T08:58:05;97366.75;;;32.87;80.39
20115;BME280;10218;42.874;25.320;2023-07-16T09:00:33;97367.09;;;32.72;83.08
20115;BME280;10218;42.874;25.320;2023-07-16T09:03:00;97356.75;;;32.50;82.75
20115;BME280;10218;42.874;25.320;2023-07-16T09:05:29;97358.88;;;33.30;76.29
20115;BME280;10218;42.874;25.320;2023-07-16T09:08:03;97358.72;;;32.99;76.76
20115;BME280;10218;42.874;25.320;2023-07-16T09:10:30;97363.09;;;34.25;73.82
20115;BME280;10218;42.874;25.320;2023-07-16T09:12:58;97368.94;;;33.26;74.86
20115;BME280;10218;42.874;25.320;2023-07-16T09:15:29;97364.22;;;33.13;75.60
20115;BME280;10218;42.874;25.320;2023-07-16T09:17:56;97361.19;;;33.59;69.90
20115;BME280;10218;42.874;25.320;2023-07-16T09:20:23;97368.19;;;34.09;67.29
20115;BME280;10218;42.874;25.320;2023-07-16T09:22:53;97362.91;;;33.46;69.99
20115;BME280;10218;42.874;25.320;2023-07-16T09:25:31;97360.31;;;33.49;69.60
20115;BME280;10218;42.874;25.320;2023-07-16T09:28:02;97350.91;;;33.73;75.68
20115;BME280;10218;42.874;25.320;2023-07-16T09:30:33;97354.41;;;33.87;66.19
20115;BME280;10218;42.874;25.320;2023-07-16T09:33:15;97362.34;;;34.11;63.83
20115;BME280;10218;42.874;25.320;2023-07-16T09:35:43;97359.44;;;34.16;66.84
20115;BME280;10218;42.874;25.320;2023-07-16T09:38:11;97360.12;;;35.35;64.53
20115;BME280;10218;42.874;25.320;2023-07-16T09:40:39;97353.28;;;33.21;71.54
20115;BME280;10218;42.874;25.320;2023-07-16T09:43:10;97364.31;;;34.98;61.19
20115;BME280;10218;42.874;25.320;2023-07-16T09:45:38;97364.16;;;35.11;54.77
20115;BME280;10218;42.874;25.320;2023-07-16T09:48:05;97354.19;;;35.02;55.47
20115;BME280;10218;42.874;25.320;2023-07-16T09:50:33;97353.66;;;34.74;55.41
20115;BME280;10218;42.874;25.320;2023-07-16T09:53:03;97354.22;;;34.54;57.83
20115;BME280;10218;42.874;25.320;2023-07-16T09:55:33;97342.94;;;33.80;63.64
20115;BME280;10218;42.874;25.320;2023-07-16T09:58:06;97344.56;;;34.99;61.36
20115;BME280;10218;42.874;25.320;2023-07-16T10:00:35;97338.69;;;35.44;54.43
20115;BME280;10218;42.874;25.320;2023-07-16T10:03:07;97338.97;;;35.85;51.54
20115;BME280;10218;42.874;25.320;2023-07-16T10:05:36;97335.34;;;35.93;50.87
20115;BME280;10218;42.874;25.320;2023-07-16T10:08:04;97342.13;;;34.50;54.21
20115;BME280;10218;42.874;25.320;2023-07-16T10:10:48;97344.44;;;34.65;53.47
20115;BME280;10218;42.874;25.320;2023-07-16T10:13:16;97345.66;;;34.81;52.00
20115;BME280;10218;42.874;25.320;2023-07-16T10:15:59;97341.63;;;35.04;50.38
20115;BME280;10218;42.874;25.320;2023-07-16T10:18:28;97338.00;;;35.12;49.64
20115;BME280;10218;42.874;25.320;2023-07-16T10:21:02;97323.06;;;35.94;52.07
20115;BME280;10218;42.874;25.320;2023-07-16T10:23:41;97328.09;;;35.29;49.91
20115;BME280;10218;42.874;25.320;2023-07-16T10:26:12;97331.56;;;36.74;46.24
20115;BME280;10218;42.874;25.320;2023-07-16T10:28:42;97330.75;;;35.97;45.54
20115;BME280;10218;42.874;25.320;2023-07-16T10:31:24;97327.75;;;35.22;45.58
20115;BME280;10218;42.874;25.320;2023-07-16T10:34:02;97327.91;;;35.34;45.33
20115;BME280;10218;42.874;25.320;2023-07-16T10:36:40;97318.25;;;36.21;43.08
20115;BME280;10218;42.874;25.320;2023-07-16T10:39:07;97318.78;;;35.97;46.19
20115;BME280;10218;42.874;25.320;2023-07-16T10:41:34;97310.56;;;36.26;49.89
20115;BME280;10218;42.874;25.320;2023-07-16T10:44:02;97319.59;;;37.03;44.14
20115;BME280;10218;42.874;25.320;2023-07-16T10:46:31;97320.84;;;36.84;42.95
20115;BME280;10218;42.874;25.320;2023-07-16T10:48:59;97316.75;;;35.51;45.33
20115;BME280;10218;42.874;25.320;2023-07-16T10:51:26;97315.16;;;35.50;44.48
20115;BME280;10218;42.874;25.320;2023-07-16T10:53:56;97306.06;;;36.34;46.56
20115;BME280;10218;42.874;25.320;2023-07-16T10:56:24;97316.97;;;36.10;42.08
20115;BME280;10218;42.874;25.320;2023-07-16T10:58:51;97316.41;;;35.78;42.36
20115;BME280;10218;42.874;25.320;2023-07-16T11:01:20;97302.06;;;35.68;47.08
20115;BME280;10218;42.874;25.320;2023-07-16T11:03:47;97313.25;;;34.59;50.91
20115;BME280;10218;42.874;25.320;2023-07-16T11:06:14;97308.06;;;35.61;48.24
20115;BME280;10218;42.874;25.320;2023-07-16T11:08:44;97314.47;;;36.84;47.77
20115;BME280;10218;42.874;25.320;2023-07-16T11:11:11;97306.47;;;37.90;48.21
20115;BME280;10218;42.874;25.320;2023-07-16T11:13:38;97308.50;;;37.56;52.76
20115;BME280;10218;42.874;25.320;2023-07-16T11:16:09;97309.13;;;38.19;46.98
20115;BME280;10218;42.874;25.320;2023-07-16T11:18:37;97300.63;;;38.16;44.84
20115;BME280;10218;42.874;25.320;2023-07-16T11:21:04;97300.00;;;37.98;45.75
20115;BME280;10218;42.874;25.320;2023-07-16T11:23:35;97304.69;;;37.40;40.04
20115;BME280;10218;42.874;25.320;2023-07-16T11:26:02;97305.28;;;36.63;43.49
20115;BME280;10218;42.874;25.320;2023-07-16T11:28:40;97298.31;;;36.77;45.28
20115;BME280;10218;42.874;25.320;2023-07-16T11:31:13;97284.88;;;37.21;44.68
20115;BME280;10218;42.874;25.320;2023-07-16T11:33:44;97284.03;;;37.00;45.01
20115;BME280;10218;42.874;25.320;2023-07-16T11:36:16;97299.75;;;36.25;46.93
20115;BME280;10218;42.874;25.320;2023-07-16T11:38:43;97286.97;;;35.77;48.08
20115;BME280;10218;42.874;25.320;2023-07-16T11:41:10;97288.72;;;35.99;49.48
20115;BME280;10218;42.874;25.320;2023-07-16T11:43:40;97281.75;;;37.22;51.53
20115;BME280;10218;42.874;25.320;2023-07-16T11:46:15;97293.53;;;38.06;45.58
20115;BME280;10218;42.874;25.320;2023-07-16T11:48:45;97289.94;;;38.18;46.69
20115;BME280;10218;42.874;25.320;2023-07-16T11:51:12;97283.75;;;38.00;46.90
20115;BME280;10218;42.874;25.320;2023-07-16T11:53:39;97285.94;;;37.94;45.74
20115;BME280;10218;42.874;25.320;2023-07-16T11:56:06;97288.09;;;38.34;42.90
20115;BME280;10218;42.874;25.320;2023-07-16T11:58:33;97288.66;;;38.15;43.83
20115;BME280;10218;42.874;25.320;2023-07-16T12:01:01;97294.63;;;35.89;47.16
20115;BME280;10218;42.874;25.320;2023-07-16T12:03:28;97289.75;;;36.24;54.34
20115;BME280;10218;42.874;25.320;2023-07-16T12:05:55;97282.91;;;35.75;50.75
20115;BME280;10218;42.874;25.320;2023-07-16T12:08:22;97292.66;;;36.65;48.37
20115;BME280;10218;42.874;25.320;2023-07-16T12:10:49;97290.94;;;37.23;43.75
20115;BME280;10218;42.874;25.320;2023-07-16T12:13:17;97288.72;;;36.66;44.80
20115;BME280;10218;42.874;25.320;2023-07-16T12:15:44;97288.13;;;37.02;44.23
20115;BME280;10218;42.874;25.320;2023-07-16T12:18:11;97296.75;;;36.59;44.66
20115;BME280;10218;42.874;25.320;2023-07-16T12:20:38;97286.25;;;35.97;47.15
20115;BME280;10218;42.874;25.320;2023-07-16T12:23:06;97275.91;;;36.07;46.30
20115;BME280;10218;42.874;25.320;2023-07-16T12:25:34;97288.88;;;36.40;42.82
20115;BME280;10218;42.874;25.320;2023-07-16T12:28:01;97287.66;;;36.79;47.55
20115;BME280;10218;42.874;25.320;2023-07-16T12:30:28;97287.13;;;37.60;41.12
20115;BME280;10218;42.874;25.320;2023-07-16T12:32:56;97288.22;;;37.14;43.89
20115;BME280;10218;42.874;25.320;2023-07-16T12:35:23;97282.38;;;37.28;44.67
20115;BME280;10218;42.874;25.320;2023-07-16T12:37:50;97285.16;;;37.61;45.02
20115;BME280;10218;42.874;25.320;2023-07-16T12:40:17;97294.72;;;38.54;38.59
20115;BME280;10218;42.874;25.320;2023-07-16T12:42:45;97275.72;;;37.53;40.36
20115;BME280;10218;42.874;25.320;2023-07-16T12:45:12;97286.69;;;37.71;39.74
20115;BME280;10218;42.874;25.320;2023-07-16T12:47:39;97287.03;;;37.36;39.73
20115;BME280;10218;42.874;25.320;2023-07-16T12:50:07;97284.34;;;36.27;41.46
20115;BME280;10218;42.874;25.320;2023-07-16T12:52:34;97277.09;;;37.47;39.41
20115;BME280;10218;42.874;25.320;2023-07-16T12:55:02;97266.22;;;36.13;45.43
20115;BME280;10218;42.874;25.320;2023-07-16T12:57:30;97266.41;;;36.16;49.80
20115;BME280;10218;42.874;25.320;2023-07-16T12:59:57;97280.78;;;38.54;41.47
20115;BME280;10218;42.874;25.320;2023-07-16T13:02:24;97270.97;;;38.35;44.33